TAF and METAR

No METAR available for Santa Cruz/Graciosa Bay/Luova Airport

TAF for Santa Cruz/Graciosa Bay/Luova Airport

TAF AGGL 162310Z 1700/1724 09018KT 9999 SCT018 PROB40 INTER 1700/1706 5000 TSSH BKN017 SCT020CB
Report created 17. aug 01:10

between 17. aug 02:00 - 17. aug 02:00

wind 18 knots from E (090°) visibility > 10km scattered clouds (~50% cover) at 1800 feet
Santa Cruz/Graciosa Bay/Luova Airport in Solomon Islands at 24m

Latest 5 airports